<?xml version="1.0" encoding="UTF-8" standalone="no" ?>
<gpx xmlns="http://www.topografix.com/GPX/1/1" xmlns:xsi="http://www.w3.org/2001/XMLSchema-instance" xsi:schemaLocation="http://www.topografix.com/GPX/1/1 http://www.topografix.com/GPX/1/1/gpx.xsd" version="1.1" creator="VisuGPX - https://www.visugpx.com">
  <metadata>
    <name>VTTNO31k765m</name>
  </metadata>
  <trk>
    <name><![CDATA[VTTNO30k974m]]></name>
    <trkseg>
      <trkpt lat="46.21438" lon="4.75489">
        <ele>192.39175415039</ele>
        <time>2019-12-13T20:10:17.000Z</time>
      </trkpt>
      <trkpt lat="46.21438" lon="4.75489">
        <ele>192.39175415039</ele>
        <time>2019-12-13T20:10:17.000Z</time>
      </trkpt>
      <trkpt lat="46.21437" lon="4.75476">
        <ele>192.24443054199</ele>
        <time>2019-12-13T20:10:17.002Z</time>
      </trkpt>
      <trkpt lat="46.21429" lon="4.75476">
        <ele>192.45571899414</ele>
        <time>2019-12-13T20:10:17.006Z</time>
      </trkpt>
      <trkpt lat="46.21355" lon="4.75604">
        <ele>189.61180114746</ele>
        <time>2019-12-13T20:10:17.033Z</time>
      </trkpt>
      <trkpt lat="46.2135" lon="4.75627">
        <ele>189.13278198242</ele>
        <time>2019-12-13T20:10:17.063Z</time>
      </trkpt>
      <trkpt lat="46.2133" lon="4.75677">
        <ele>189.44018554688</ele>
        <time>2019-12-13T20:10:17.101Z</time>
      </trkpt>
      <trkpt lat="46.21278" lon="4.75644">
        <ele>190.23196411133</ele>
        <time>2019-12-13T20:10:17.150Z</time>
      </trkpt>
      <trkpt lat="46.21264" lon="4.75633">
        <ele>190.73399353027</ele>
        <time>2019-12-13T20:10:17.203Z</time>
      </trkpt>
      <trkpt lat="46.21262" lon="4.75633">
        <ele>190.8115234375</ele>
        <time>2019-12-13T20:10:17.256Z</time>
      </trkpt>
      <trkpt lat="46.21262" lon="4.75633">
        <ele>190.81121826172</ele>
        <time>2019-12-13T20:10:17.309Z</time>
      </trkpt>
      <trkpt lat="46.21255" lon="4.75628">
        <ele>191.04292297363</ele>
        <time>2019-12-13T20:10:17.364Z</time>
      </trkpt>
      <trkpt lat="46.21223" lon="4.75606">
        <ele>193.04850769043</ele>
        <time>2019-12-13T20:10:17.426Z</time>
      </trkpt>
      <trkpt lat="46.21216" lon="4.75601">
        <ele>193.75648498535</ele>
        <time>2019-12-13T20:10:17.489Z</time>
      </trkpt>
      <trkpt lat="46.21187" lon="4.7558">
        <ele>196.49026489258</ele>
        <time>2019-12-13T20:10:17.559Z</time>
      </trkpt>
      <trkpt lat="46.21175" lon="4.75572">
        <ele>197.64878845215</ele>
        <time>2019-12-13T20:10:17.631Z</time>
      </trkpt>
      <trkpt lat="46.21163" lon="4.75562">
        <ele>198.84591674805</ele>
        <time>2019-12-13T20:10:17.706Z</time>
      </trkpt>
      <trkpt lat="46.21129" lon="4.75537">
        <ele>201.80172729492</ele>
        <time>2019-12-13T20:10:17.789Z</time>
      </trkpt>
      <trkpt lat="46.21101" lon="4.75521">
        <ele>203.33395385742</ele>
        <time>2019-12-13T20:10:17.878Z</time>
      </trkpt>
      <trkpt lat="46.21088" lon="4.75505">
        <ele>204.14451599121</ele>
        <time>2019-12-13T20:10:17.970Z</time>
      </trkpt>
      <trkpt lat="46.21094" lon="4.75409">
        <ele>205.61193847656</ele>
        <time>2019-12-13T20:10:18.076Z</time>
      </trkpt>
      <trkpt lat="46.21084" lon="4.754">
        <ele>205.74057006836</ele>
        <time>2019-12-13T20:10:18.184Z</time>
      </trkpt>
      <trkpt lat="46.21065" lon="4.75386">
        <ele>205.95950317383</ele>
        <time>2019-12-13T20:10:18.296Z</time>
      </trkpt>
      <trkpt lat="46.21065" lon="4.75386">
        <ele>205.9593963623</ele>
        <time>2019-12-13T20:10:18.408Z</time>
      </trkpt>
      <trkpt lat="46.21055" lon="4.75378">
        <ele>205.5588684082</ele>
        <time>2019-12-13T20:10:18.523Z</time>
      </trkpt>
      <trkpt lat="46.21096" lon="4.75178">
        <ele>205.76928710938</ele>
        <time>2019-12-13T20:10:18.667Z</time>
      </trkpt>
      <trkpt lat="46.21096" lon="4.75178">
        <ele>205.77816772461</ele>
        <time>2019-12-13T20:10:18.811Z</time>
      </trkpt>
      <trkpt lat="46.21096" lon="4.75178">
        <ele>205.77795410156</ele>
        <time>2019-12-13T20:10:18.955Z</time>
      </trkpt>
      <trkpt lat="46.21102" lon="4.75148">
        <ele>205.43447875977</ele>
        <time>2019-12-13T20:10:19.103Z</time>
      </trkpt>
      <trkpt lat="46.21107" lon="4.74941">
        <ele>206.76702880859</ele>
        <time>2019-12-13T20:10:19.280Z</time>
      </trkpt>
      <trkpt lat="46.21051" lon="4.74869">
        <ele>203.93785095215</ele>
        <time>2019-12-13T20:10:19.472Z</time>
      </trkpt>
      <trkpt lat="46.21015" lon="4.74851">
        <ele>204.15669250488</ele>
        <time>2019-12-13T20:10:19.672Z</time>
      </trkpt>
      <trkpt lat="46.20986" lon="4.74852">
        <ele>203.77052307129</ele>
        <time>2019-12-13T20:10:19.877Z</time>
      </trkpt>
      <trkpt lat="46.2093" lon="4.74879">
        <ele>203.48715209961</ele>
        <time>2019-12-13T20:10:20.094Z</time>
      </trkpt>
      <trkpt lat="46.20925" lon="4.74862">
        <ele>203.75746154785</ele>
        <time>2019-12-13T20:10:20.314Z</time>
      </trkpt>
      <trkpt lat="46.20938" lon="4.74767">
        <ele>205.75312805176</ele>
        <time>2019-12-13T20:10:20.547Z</time>
      </trkpt>
      <trkpt lat="46.20977" lon="4.74601">
        <ele>209.17950439453</ele>
        <time>2019-12-13T20:10:20.805Z</time>
      </trkpt>
      <trkpt lat="46.20989" lon="4.74528">
        <ele>210.12655639648</ele>
        <time>2019-12-13T20:10:21.073Z</time>
      </trkpt>
      <trkpt lat="46.21048" lon="4.74401">
        <ele>210.93699645996</ele>
        <time>2019-12-13T20:10:21.362Z</time>
      </trkpt>
      <trkpt lat="46.21111" lon="4.74327">
        <ele>211.11616516113</ele>
        <time>2019-12-13T20:10:21.667Z</time>
      </trkpt>
      <trkpt lat="46.21124" lon="4.74297">
        <ele>211.63116455078</ele>
        <time>2019-12-13T20:10:21.977Z</time>
      </trkpt>
      <trkpt lat="46.21171" lon="4.74314">
        <ele>211.3</ele>
      </trkpt>
      <trkpt lat="46.21187" lon="4.74333">
        <ele>211.2</ele>
      </trkpt>
      <trkpt lat="46.21244" lon="4.74263">
        <ele>211.8</ele>
      </trkpt>
      <trkpt lat="46.21269" lon="4.7427">
        <ele>212.1</ele>
      </trkpt>
      <trkpt lat="46.2133" lon="4.743">
        <ele>212.5</ele>
      </trkpt>
      <trkpt lat="46.2138" lon="4.742">
        <ele>213.8</ele>
      </trkpt>
      <trkpt lat="46.21402" lon="4.74155">
        <ele>215</ele>
      </trkpt>
      <trkpt lat="46.2134" lon="4.74092">
        <ele>215</ele>
      </trkpt>
      <trkpt lat="46.21358" lon="4.74049">
        <ele>216.9</ele>
      </trkpt>
      <trkpt lat="46.21373" lon="4.73982">
        <ele>219.2</ele>
      </trkpt>
      <trkpt lat="46.21365" lon="4.73967">
        <ele>219.2</ele>
      </trkpt>
      <trkpt lat="46.21383" lon="4.7387">
        <ele>220.9</ele>
      </trkpt>
      <trkpt lat="46.21404" lon="4.73806">
        <ele>221.6</ele>
      </trkpt>
      <trkpt lat="46.21422" lon="4.73649">
        <ele>224.3</ele>
      </trkpt>
      <trkpt lat="46.21404" lon="4.73564">
        <ele>221</ele>
      </trkpt>
      <trkpt lat="46.21272" lon="4.73608">
        <ele>217.1</ele>
      </trkpt>
      <trkpt lat="46.21215" lon="4.73687">
        <ele>214.3</ele>
      </trkpt>
      <trkpt lat="46.2119" lon="4.7359">
        <ele>214.8</ele>
      </trkpt>
      <trkpt lat="46.21073" lon="4.73522">
        <ele>222.9</ele>
      </trkpt>
      <trkpt lat="46.21053" lon="4.73388">
        <ele>227.6</ele>
      </trkpt>
      <trkpt lat="46.21034" lon="4.73295">
        <ele>231.5</ele>
      </trkpt>
      <trkpt lat="46.21032" lon="4.73175">
        <ele>234.5</ele>
      </trkpt>
      <trkpt lat="46.20959" lon="4.72962">
        <ele>242.7</ele>
      </trkpt>
      <trkpt lat="46.20959" lon="4.7288">
        <ele>245.6</ele>
      </trkpt>
      <trkpt lat="46.20954" lon="4.72786">
        <ele>247.9</ele>
      </trkpt>
      <trkpt lat="46.20934" lon="4.72648">
        <ele>252.4</ele>
      </trkpt>
      <trkpt lat="46.20923" lon="4.72566">
        <ele>256.5</ele>
      </trkpt>
      <trkpt lat="46.20923" lon="4.72488">
        <ele>259.4</ele>
      </trkpt>
      <trkpt lat="46.20866" lon="4.72461">
        <ele>261.4</ele>
      </trkpt>
      <trkpt lat="46.20895" lon="4.72314">
        <ele>266.8</ele>
      </trkpt>
      <trkpt lat="46.209" lon="4.72148">
        <ele>271.6</ele>
      </trkpt>
      <trkpt lat="46.209" lon="4.72047">
        <ele>276.1</ele>
      </trkpt>
      <trkpt lat="46.20895" lon="4.7201">
        <ele>277.1</ele>
      </trkpt>
      <trkpt lat="46.20866" lon="4.72009">
        <ele>278</ele>
      </trkpt>
      <trkpt lat="46.20882" lon="4.71886">
        <ele>284.2</ele>
      </trkpt>
      <trkpt lat="46.20859" lon="4.71767">
        <ele>289.6</ele>
      </trkpt>
      <trkpt lat="46.20905" lon="4.71628">
        <ele>298.8</ele>
      </trkpt>
      <trkpt lat="46.20949" lon="4.71512">
        <ele>310.79376220703</ele>
        <time>2019-12-13T20:10:45.233Z</time>
      </trkpt>
      <trkpt lat="46.20869" lon="4.71508">
        <ele>314.52847290039</ele>
        <time>2019-12-13T20:10:46.021Z</time>
      </trkpt>
      <trkpt lat="46.20844" lon="4.71491">
        <ele>315.89855957031</ele>
        <time>2019-12-13T20:10:46.814Z</time>
      </trkpt>
      <trkpt lat="46.20876" lon="4.71291">
        <ele>335.25717163086</ele>
        <time>2019-12-13T20:10:47.636Z</time>
      </trkpt>
      <trkpt lat="46.20887" lon="4.71205">
        <ele>345.4248046875</ele>
        <time>2019-12-13T20:10:48.470Z</time>
      </trkpt>
      <trkpt lat="46.20889" lon="4.71134">
        <ele>349.80053710938</ele>
        <time>2019-12-13T20:10:49.314Z</time>
      </trkpt>
      <trkpt lat="46.20905" lon="4.71065">
        <ele>352.74398803711</ele>
        <time>2019-12-13T20:10:50.168Z</time>
      </trkpt>
      <trkpt lat="46.20898" lon="4.71053">
        <ele>354.6220703125</ele>
        <time>2019-12-13T20:10:51.024Z</time>
      </trkpt>
      <trkpt lat="46.20879" lon="4.71013">
        <ele>354.7490234375</ele>
        <time>2019-12-13T20:10:51.887Z</time>
      </trkpt>
      <trkpt lat="46.20899" lon="4.70922">
        <ele>360.10772705078</ele>
        <time>2019-12-13T20:10:52.763Z</time>
      </trkpt>
      <trkpt lat="46.20919" lon="4.70907">
        <ele>358.82049560547</ele>
        <time>2019-12-13T20:10:53.644Z</time>
      </trkpt>
      <trkpt lat="46.20941" lon="4.70722">
        <ele>375.18887329102</ele>
        <time>2019-12-13T20:10:54.551Z</time>
      </trkpt>
      <trkpt lat="46.20928" lon="4.70566">
        <ele>393.25985717773</ele>
        <time>2019-12-13T20:10:55.480Z</time>
      </trkpt>
      <trkpt lat="46.20916" lon="4.70497">
        <ele>398.66854858398</ele>
        <time>2019-12-13T20:10:56.419Z</time>
      </trkpt>
      <trkpt lat="46.20916" lon="4.70497">
        <ele>398.66217041016</ele>
        <time>2019-12-13T20:10:57.358Z</time>
      </trkpt>
      <trkpt lat="46.20916" lon="4.70497">
        <ele>398.66217041016</ele>
        <time>2019-12-13T20:10:59.240Z</time>
      </trkpt>
      <trkpt lat="46.20915" lon="4.70491">
        <ele>399.02398681641</ele>
        <time>2019-12-13T20:11:00.183Z</time>
      </trkpt>
      <trkpt lat="46.2093" lon="4.70461">
        <ele>400.89730834961</ele>
        <time>2019-12-13T20:11:01.131Z</time>
      </trkpt>
      <trkpt lat="46.20973" lon="4.70418">
        <ele>403.57635498047</ele>
        <time>2019-12-13T20:11:02.089Z</time>
      </trkpt>
      <trkpt lat="46.20972" lon="4.70267">
        <ele>422.44082641602</ele>
        <time>2019-12-13T20:11:03.068Z</time>
      </trkpt>
      <trkpt lat="46.20972" lon="4.70267">
        <ele>422.4421081543</ele>
        <time>2019-12-13T20:11:04.047Z</time>
      </trkpt>
      <trkpt lat="46.20971" lon="4.70204">
        <ele>433.66558837891</ele>
        <time>2019-12-13T20:11:05.035Z</time>
      </trkpt>
      <trkpt lat="46.20977" lon="4.70173">
        <ele>438.26708984375</ele>
        <time>2019-12-13T20:11:06.027Z</time>
      </trkpt>
      <trkpt lat="46.20969" lon="4.70104">
        <ele>443.90991210938</ele>
        <time>2019-12-13T20:11:07.029Z</time>
      </trkpt>
      <trkpt lat="46.20968" lon="4.70093">
        <ele>444.62741088867</ele>
        <time>2019-12-13T20:11:08.033Z</time>
      </trkpt>
      <trkpt lat="46.21027" lon="4.70126">
        <ele>443.8</ele>
      </trkpt>
      <trkpt lat="46.21055" lon="4.70123">
        <ele>445.8</ele>
      </trkpt>
      <trkpt lat="46.2112" lon="4.70141">
        <ele>447.9</ele>
      </trkpt>
      <trkpt lat="46.21197" lon="4.70104">
        <ele>445.6</ele>
      </trkpt>
      <trkpt lat="46.21244" lon="4.69999">
        <ele>461.6</ele>
      </trkpt>
      <trkpt lat="46.21288" lon="4.69869">
        <ele>471</ele>
      </trkpt>
      <trkpt lat="46.21339" lon="4.6976">
        <ele>473</ele>
      </trkpt>
      <trkpt lat="46.21404" lon="4.69656">
        <ele>478.6</ele>
      </trkpt>
      <trkpt lat="46.21476" lon="4.69588">
        <ele>476.1</ele>
      </trkpt>
      <trkpt lat="46.2152" lon="4.69562">
        <ele>482.5</ele>
      </trkpt>
      <trkpt lat="46.21582" lon="4.69572">
        <ele>479</ele>
      </trkpt>
      <trkpt lat="46.21628" lon="4.69595">
        <ele>473.9</ele>
      </trkpt>
      <trkpt lat="46.21672" lon="4.69672">
        <ele>470.7</ele>
      </trkpt>
      <trkpt lat="46.21725" lon="4.69699">
        <ele>471.1</ele>
      </trkpt>
      <trkpt lat="46.21738" lon="4.69738">
        <ele>470.4</ele>
      </trkpt>
      <trkpt lat="46.21727" lon="4.69757">
        <ele>467.6</ele>
      </trkpt>
      <trkpt lat="46.21691" lon="4.6985">
        <ele>462.3</ele>
      </trkpt>
      <trkpt lat="46.21678" lon="4.69936">
        <ele>456.9</ele>
      </trkpt>
      <trkpt lat="46.21727" lon="4.69981">
        <ele>456.6</ele>
      </trkpt>
      <trkpt lat="46.21825" lon="4.69999">
        <ele>452.8</ele>
      </trkpt>
      <trkpt lat="46.21885" lon="4.7007">
        <ele>450.2</ele>
      </trkpt>
      <trkpt lat="46.2193" lon="4.70124">
        <ele>457.8</ele>
      </trkpt>
      <trkpt lat="46.21962" lon="4.70179">
        <ele>455.1</ele>
      </trkpt>
      <trkpt lat="46.21988" lon="4.70253">
        <ele>453.9</ele>
      </trkpt>
      <trkpt lat="46.22025" lon="4.70342">
        <ele>452.4</ele>
      </trkpt>
      <trkpt lat="46.22085" lon="4.70399">
        <ele>461.6</ele>
      </trkpt>
      <trkpt lat="46.2214" lon="4.70436">
        <ele>457.9</ele>
      </trkpt>
      <trkpt lat="46.22158" lon="4.70495">
        <ele>454.8</ele>
      </trkpt>
      <trkpt lat="46.22272" lon="4.70725">
        <ele>442.2</ele>
      </trkpt>
      <trkpt lat="46.22293" lon="4.7074">
        <ele>442.3</ele>
      </trkpt>
      <trkpt lat="46.22302" lon="4.70755">
        <ele>435.2</ele>
      </trkpt>
      <trkpt lat="46.22313" lon="4.70772">
        <ele>435.1</ele>
      </trkpt>
      <trkpt lat="46.22309" lon="4.70795">
        <ele>433</ele>
      </trkpt>
      <trkpt lat="46.22295" lon="4.70846">
        <ele>424.3</ele>
      </trkpt>
      <trkpt lat="46.2227" lon="4.70906">
        <ele>419.7</ele>
      </trkpt>
      <trkpt lat="46.22257" lon="4.71016">
        <ele>405.1</ele>
      </trkpt>
      <trkpt lat="46.22252" lon="4.71064">
        <ele>400.6</ele>
      </trkpt>
      <trkpt lat="46.22221" lon="4.71143">
        <ele>386.3</ele>
      </trkpt>
      <trkpt lat="46.22267" lon="4.71117">
        <ele>386.5</ele>
      </trkpt>
      <trkpt lat="46.22329" lon="4.71059">
        <ele>398</ele>
      </trkpt>
      <trkpt lat="46.22364" lon="4.71053">
        <ele>393.4</ele>
      </trkpt>
      <trkpt lat="46.2241" lon="4.71053">
        <ele>389.6</ele>
      </trkpt>
      <trkpt lat="46.2249" lon="4.70974">
        <ele>388.7</ele>
      </trkpt>
      <trkpt lat="46.22521" lon="4.70882">
        <ele>380.8</ele>
      </trkpt>
      <trkpt lat="46.22589" lon="4.70961">
        <ele>354.9</ele>
      </trkpt>
      <trkpt lat="46.22613" lon="4.71079">
        <ele>350</ele>
      </trkpt>
      <trkpt lat="46.2262" lon="4.7113">
        <ele>342.8</ele>
      </trkpt>
      <trkpt lat="46.22615" lon="4.71182">
        <ele>337.02621459961</ele>
        <time>2019-12-13T20:13:18.057Z</time>
      </trkpt>
      <trkpt lat="46.22598" lon="4.71208">
        <ele>338.61819458008</ele>
        <time>2019-12-13T20:13:19.774Z</time>
      </trkpt>
      <trkpt lat="46.22549" lon="4.71214">
        <ele>348.00704956055</ele>
        <time>2019-12-13T20:13:21.501Z</time>
      </trkpt>
      <trkpt lat="46.22507" lon="4.71249">
        <ele>344.00427246094</ele>
        <time>2019-12-13T20:13:23.238Z</time>
      </trkpt>
      <trkpt lat="46.22487" lon="4.71248">
        <ele>344.42907714844</ele>
        <time>2019-12-13T20:13:24.979Z</time>
      </trkpt>
      <trkpt lat="46.22503" lon="4.71279">
        <ele>339.009765625</ele>
        <time>2019-12-13T20:13:26.725Z</time>
      </trkpt>
      <trkpt lat="46.22501" lon="4.7129">
        <ele>337.19744873047</ele>
        <time>2019-12-13T20:13:28.473Z</time>
      </trkpt>
      <trkpt lat="46.22446" lon="4.71253">
        <ele>343.23184204102</ele>
        <time>2019-12-13T20:13:30.233Z</time>
      </trkpt>
      <trkpt lat="46.2244" lon="4.71272">
        <ele>338.94311523438</ele>
        <time>2019-12-13T20:13:31.996Z</time>
      </trkpt>
      <trkpt lat="46.22443" lon="4.71295">
        <ele>334.34002685547</ele>
        <time>2019-12-13T20:13:33.762Z</time>
      </trkpt>
      <trkpt lat="46.22465" lon="4.71302">
        <ele>334.53262329102</ele>
        <time>2019-12-13T20:13:35.533Z</time>
      </trkpt>
      <trkpt lat="46.2258" lon="4.71581">
        <ele>290.82418823242</ele>
        <time>2019-12-13T20:13:37.349Z</time>
      </trkpt>
      <trkpt lat="46.22574" lon="4.7162">
        <ele>289.04635620117</ele>
        <time>2019-12-13T20:13:39.170Z</time>
      </trkpt>
      <trkpt lat="46.22539" lon="4.71659">
        <ele>289.22528076172</ele>
        <time>2019-12-13T20:13:41.000Z</time>
      </trkpt>
      <trkpt lat="46.22623" lon="4.71659">
        <ele>277.97747802734</ele>
        <time>2019-12-13T20:13:42.847Z</time>
      </trkpt>
      <trkpt lat="46.22694" lon="4.71621">
        <ele>265.2336730957</ele>
        <time>2019-12-13T20:13:44.709Z</time>
      </trkpt>
      <trkpt lat="46.22736" lon="4.71591">
        <ele>256.06317138672</ele>
        <time>2019-12-13T20:13:46.580Z</time>
      </trkpt>
      <trkpt lat="46.22736" lon="4.71591">
        <ele>256.0634765625</ele>
        <time>2019-12-13T20:13:48.451Z</time>
      </trkpt>
      <trkpt lat="46.22777" lon="4.71562">
        <ele>247.56413269043</ele>
        <time>2019-12-13T20:13:50.331Z</time>
      </trkpt>
      <trkpt lat="46.22826" lon="4.7151">
        <ele>243.28507995605</ele>
        <time>2019-12-13T20:13:52.224Z</time>
      </trkpt>
      <trkpt lat="46.22855" lon="4.71495">
        <ele>241.37982177734</ele>
        <time>2019-12-13T20:13:54.123Z</time>
      </trkpt>
      <trkpt lat="46.22964" lon="4.71538">
        <ele>229.51629638672</ele>
        <time>2019-12-13T20:13:56.045Z</time>
      </trkpt>
      <trkpt lat="46.23033" lon="4.71579">
        <ele>230.94575500488</ele>
        <time>2019-12-13T20:13:57.981Z</time>
      </trkpt>
      <trkpt lat="46.23037" lon="4.71582">
        <ele>231.10023498535</ele>
        <time>2019-12-13T20:13:59.918Z</time>
      </trkpt>
      <trkpt lat="46.23056" lon="4.71596">
        <ele>231.75701904297</ele>
        <time>2019-12-13T20:14:01.860Z</time>
      </trkpt>
      <trkpt lat="46.23091" lon="4.71634">
        <ele>235.61381530762</ele>
        <time>2019-12-13T20:14:03.810Z</time>
      </trkpt>
      <trkpt lat="46.2309" lon="4.71643">
        <ele>235.36813354492</ele>
        <time>2019-12-13T20:14:05.762Z</time>
      </trkpt>
      <trkpt lat="46.23117" lon="4.71638">
        <ele>238.97242736816</ele>
        <time>2019-12-13T20:14:07.719Z</time>
      </trkpt>
      <trkpt lat="46.23146" lon="4.71662">
        <ele>242.49940490723</ele>
        <time>2019-12-13T20:14:09.683Z</time>
      </trkpt>
      <trkpt lat="46.23179" lon="4.71686">
        <ele>245.00953674316</ele>
        <time>2019-12-13T20:14:11.654Z</time>
      </trkpt>
      <trkpt lat="46.23207" lon="4.7171">
        <ele>247.22009277344</ele>
        <time>2019-12-13T20:14:13.632Z</time>
      </trkpt>
      <trkpt lat="46.2325" lon="4.71629">
        <ele>252.6428527832</ele>
        <time>2019-12-13T20:14:15.624Z</time>
      </trkpt>
      <trkpt lat="46.2325" lon="4.71629">
        <ele>252.64315795898</ele>
        <time>2019-12-13T20:14:17.616Z</time>
      </trkpt>
      <trkpt lat="46.23269" lon="4.71592">
        <ele>253.44187927246</ele>
        <time>2019-12-13T20:14:19.614Z</time>
      </trkpt>
      <trkpt lat="46.23274" lon="4.71581">
        <ele>253.69688415527</ele>
        <time>2019-12-13T20:14:21.614Z</time>
      </trkpt>
      <trkpt lat="46.23281" lon="4.71569">
        <ele>254.58508300781</ele>
        <time>2019-12-13T20:14:23.616Z</time>
      </trkpt>
      <trkpt lat="46.23293" lon="4.71546">
        <ele>256.24502563477</ele>
        <time>2019-12-13T20:14:25.622Z</time>
      </trkpt>
      <trkpt lat="46.23293" lon="4.71546">
        <ele>256.24563598633</ele>
        <time>2019-12-13T20:14:27.628Z</time>
      </trkpt>
      <trkpt lat="46.23312" lon="4.7151">
        <ele>257.65240478516</ele>
        <time>2019-12-13T20:14:29.641Z</time>
      </trkpt>
      <trkpt lat="46.23327" lon="4.7148">
        <ele>258.0173034668</ele>
        <time>2019-12-13T20:14:31.659Z</time>
      </trkpt>
      <trkpt lat="46.23334" lon="4.71467">
        <ele>258.22326660156</ele>
        <time>2019-12-13T20:14:33.679Z</time>
      </trkpt>
      <trkpt lat="46.23341" lon="4.71455">
        <ele>258.39059448242</ele>
        <time>2019-12-13T20:14:35.701Z</time>
      </trkpt>
      <trkpt lat="46.23413" lon="4.71323">
        <ele>264.00378417969</ele>
        <time>2019-12-13T20:14:37.747Z</time>
      </trkpt>
      <trkpt lat="46.23427" lon="4.71299">
        <ele>265.70523071289</ele>
        <time>2019-12-13T20:14:39.797Z</time>
      </trkpt>
      <trkpt lat="46.23434" lon="4.71282">
        <ele>266.6496887207</ele>
        <time>2019-12-13T20:14:41.850Z</time>
      </trkpt>
      <trkpt lat="46.23435" lon="4.71282">
        <ele>266.75268554688</ele>
        <time>2019-12-13T20:14:43.903Z</time>
      </trkpt>
      <trkpt lat="46.23439" lon="4.71276">
        <ele>266.984375</ele>
        <time>2019-12-13T20:14:45.957Z</time>
      </trkpt>
      <trkpt lat="46.23452" lon="4.71251">
        <ele>268.46310424805</ele>
        <time>2019-12-13T20:14:48.015Z</time>
      </trkpt>
      <trkpt lat="46.23461" lon="4.71199">
        <ele>271.24282836914</ele>
        <time>2019-12-13T20:14:50.081Z</time>
      </trkpt>
      <trkpt lat="46.23468" lon="4.71094">
        <ele>267.56387329102</ele>
        <time>2019-12-13T20:14:52.162Z</time>
      </trkpt>
      <trkpt lat="46.23472" lon="4.71084">
        <ele>267.43405151367</ele>
        <time>2019-12-13T20:14:54.244Z</time>
      </trkpt>
      <trkpt lat="46.23469" lon="4.71065">
        <ele>265.61901855469</ele>
        <time>2019-12-13T20:14:56.329Z</time>
      </trkpt>
      <trkpt lat="46.23475" lon="4.71034">
        <ele>264.2705078125</ele>
        <time>2019-12-13T20:14:58.418Z</time>
      </trkpt>
      <trkpt lat="46.235" lon="4.70913">
        <ele>259.31756591797</ele>
        <time>2019-12-13T20:15:00.525Z</time>
      </trkpt>
      <trkpt lat="46.23534" lon="4.70823">
        <ele>257.89855957031</ele>
        <time>2019-12-13T20:15:02.646Z</time>
      </trkpt>
      <trkpt lat="46.23551" lon="4.70735">
        <ele>254.98774719238</ele>
        <time>2019-12-13T20:15:04.780Z</time>
      </trkpt>
      <trkpt lat="46.23551" lon="4.70708">
        <ele>253.70050048828</ele>
        <time>2019-12-13T20:15:06.917Z</time>
      </trkpt>
      <trkpt lat="46.23543" lon="4.70643">
        <ele>253.27381896973</ele>
        <time>2019-12-13T20:15:09.064Z</time>
      </trkpt>
      <trkpt lat="46.23509" lon="4.70588">
        <ele>255.29605102539</ele>
        <time>2019-12-13T20:15:11.221Z</time>
      </trkpt>
      <trkpt lat="46.23509" lon="4.70588">
        <ele>255.29605102539</ele>
        <time>2019-12-13T20:15:13.378Z</time>
      </trkpt>
      <trkpt lat="46.23504" lon="4.70586">
        <ele>255.47706604004</ele>
        <time>2019-12-13T20:15:15.536Z</time>
      </trkpt>
      <trkpt lat="46.23504" lon="4.70586">
        <ele>255.47750854492</ele>
        <time>2019-12-13T20:15:17.694Z</time>
      </trkpt>
      <trkpt lat="46.23509" lon="4.70588">
        <ele>255.29605102539</ele>
        <time>2019-12-13T20:15:19.853Z</time>
      </trkpt>
      <trkpt lat="46.23514" lon="4.70584">
        <ele>255.61463928223</ele>
        <time>2019-12-13T20:15:22.013Z</time>
      </trkpt>
      <trkpt lat="46.23612" lon="4.70484">
        <ele>260.75067138672</ele>
        <time>2019-12-13T20:15:24.197Z</time>
      </trkpt>
      <trkpt lat="46.23621" lon="4.70475">
        <ele>260.32067871094</ele>
        <time>2019-12-13T20:15:26.383Z</time>
      </trkpt>
      <trkpt lat="46.23624" lon="4.70471">
        <ele>260.16815185547</ele>
        <time>2019-12-13T20:15:28.570Z</time>
      </trkpt>
      <trkpt lat="46.23602" lon="4.70404">
        <ele>267.15112304688</ele>
        <time>2019-12-13T20:15:30.768Z</time>
      </trkpt>
      <trkpt lat="46.23643" lon="4.70359">
        <ele>271.09902954102</ele>
        <time>2019-12-13T20:15:32.976Z</time>
      </trkpt>
      <trkpt lat="46.23672" lon="4.70298">
        <ele>274.404296875</ele>
        <time>2019-12-13T20:15:35.194Z</time>
      </trkpt>
      <trkpt lat="46.23721" lon="4.70227">
        <ele>277.30709838867</ele>
        <time>2019-12-13T20:15:37.426Z</time>
      </trkpt>
      <trkpt lat="46.23751" lon="4.70197">
        <ele>277.02221679688</ele>
        <time>2019-12-13T20:15:39.666Z</time>
      </trkpt>
      <trkpt lat="46.23775" lon="4.70153">
        <ele>276.63830566406</ele>
        <time>2019-12-13T20:15:41.913Z</time>
      </trkpt>
      <trkpt lat="46.23785" lon="4.7012">
        <ele>279.57321166992</ele>
        <time>2019-12-13T20:15:44.165Z</time>
      </trkpt>
      <trkpt lat="46.23885" lon="4.69938">
        <ele>286.30792236328</ele>
        <time>2019-12-13T20:15:46.450Z</time>
      </trkpt>
      <trkpt lat="46.23889" lon="4.69931">
        <ele>286.85739135742</ele>
        <time>2019-12-13T20:15:48.736Z</time>
      </trkpt>
      <trkpt lat="46.23885" lon="4.69927">
        <ele>287.47860717773</ele>
        <time>2019-12-13T20:15:51.023Z</time>
      </trkpt>
      <trkpt lat="46.23883" lon="4.69924">
        <ele>287.93817138672</ele>
        <time>2019-12-13T20:15:53.310Z</time>
      </trkpt>
      <trkpt lat="46.23866" lon="4.6991">
        <ele>290.47454833984</ele>
        <time>2019-12-13T20:15:55.601Z</time>
      </trkpt>
      <trkpt lat="46.23821" lon="4.69835">
        <ele>299.12725830078</ele>
        <time>2019-12-13T20:15:57.906Z</time>
      </trkpt>
      <trkpt lat="46.23814" lon="4.69823">
        <ele>300.1442565918</ele>
        <time>2019-12-13T20:16:00.213Z</time>
      </trkpt>
      <trkpt lat="46.23824" lon="4.69803">
        <ele>300.54330444336</ele>
        <time>2019-12-13T20:16:02.524Z</time>
      </trkpt>
      <trkpt lat="46.23833" lon="4.69755">
        <ele>303.03540039062</ele>
        <time>2019-12-13T20:16:04.842Z</time>
      </trkpt>
      <trkpt lat="46.23845" lon="4.69728">
        <ele>304.33773803711</ele>
        <time>2019-12-13T20:16:07.164Z</time>
      </trkpt>
      <trkpt lat="46.23871" lon="4.69699">
        <ele>307.24139404297</ele>
        <time>2019-12-13T20:16:09.493Z</time>
      </trkpt>
      <trkpt lat="46.23885" lon="4.69671">
        <ele>311.01351928711</ele>
        <time>2019-12-13T20:16:11.826Z</time>
      </trkpt>
      <trkpt lat="46.23912" lon="4.69599">
        <ele>319.16052246094</ele>
        <time>2019-12-13T20:16:14.171Z</time>
      </trkpt>
      <trkpt lat="46.23927" lon="4.69558">
        <ele>323.64984130859</ele>
        <time>2019-12-13T20:16:16.522Z</time>
      </trkpt>
      <trkpt lat="46.23926" lon="4.69494">
        <ele>333.05368041992</ele>
        <time>2019-12-13T20:16:18.882Z</time>
      </trkpt>
      <trkpt lat="46.23935" lon="4.69459">
        <ele>337.39044189453</ele>
        <time>2019-12-13T20:16:21.247Z</time>
      </trkpt>
      <trkpt lat="46.23935" lon="4.69459">
        <ele>337.39126586914</ele>
        <time>2019-12-13T20:16:23.612Z</time>
      </trkpt>
      <trkpt lat="46.23958" lon="4.69379">
        <ele>347.35662841797</ele>
        <time>2019-12-13T20:16:25.989Z</time>
      </trkpt>
      <trkpt lat="46.23952" lon="4.69343">
        <ele>352.21005249023</ele>
        <time>2019-12-13T20:16:28.371Z</time>
      </trkpt>
      <trkpt lat="46.23963" lon="4.69265">
        <ele>360.97180175781</ele>
        <time>2019-12-13T20:16:30.764Z</time>
      </trkpt>
      <trkpt lat="46.23966" lon="4.69218">
        <ele>364.89788818359</ele>
        <time>2019-12-13T20:16:33.164Z</time>
      </trkpt>
      <trkpt lat="46.23966" lon="4.69122">
        <ele>371.26644897461</ele>
        <time>2019-12-13T20:16:35.577Z</time>
      </trkpt>
      <trkpt lat="46.23988" lon="4.6904">
        <ele>374.16497802734</ele>
        <time>2019-12-13T20:16:38.002Z</time>
      </trkpt>
      <trkpt lat="46.23991" lon="4.69025">
        <ele>374.67425537109</ele>
        <time>2019-12-13T20:16:40.430Z</time>
      </trkpt>
      <trkpt lat="46.23996" lon="4.69006">
        <ele>375.06787109375</ele>
        <time>2019-12-13T20:16:42.860Z</time>
      </trkpt>
      <trkpt lat="46.24025" lon="4.68932">
        <ele>377.40426635742</ele>
        <time>2019-12-13T20:16:45.302Z</time>
      </trkpt>
      <trkpt lat="46.2402" lon="4.68915">
        <ele>377.94491577148</ele>
        <time>2019-12-13T20:16:47.747Z</time>
      </trkpt>
      <trkpt lat="46.24036" lon="4.68916">
        <ele>378.47918701172</ele>
        <time>2019-12-13T20:16:50.195Z</time>
      </trkpt>
      <trkpt lat="46.24084" lon="4.68829">
        <ele>387.16995239258</ele>
        <time>2019-12-13T20:16:52.659Z</time>
      </trkpt>
      <trkpt lat="46.24121" lon="4.68778">
        <ele>394.00204467773</ele>
        <time>2019-12-13T20:16:55.133Z</time>
      </trkpt>
      <trkpt lat="46.24151" lon="4.6875">
        <ele>399.02212524414</ele>
        <time>2019-12-13T20:16:57.614Z</time>
      </trkpt>
      <trkpt lat="46.24183" lon="4.68725">
        <ele>403.33489990234</ele>
        <time>2019-12-13T20:17:00.102Z</time>
      </trkpt>
      <trkpt lat="46.24239" lon="4.68699">
        <ele>411.43347167969</ele>
        <time>2019-12-13T20:17:02.602Z</time>
      </trkpt>
      <trkpt lat="46.24252" lon="4.6868">
        <ele>415.29373168945</ele>
        <time>2019-12-13T20:17:05.106Z</time>
      </trkpt>
      <trkpt lat="46.24259" lon="4.68668">
        <ele>417.62512207031</ele>
        <time>2019-12-13T20:17:07.612Z</time>
      </trkpt>
      <trkpt lat="46.24311" lon="4.6872">
        <ele>414.70404052734</ele>
        <time>2019-12-13T20:17:10.131Z</time>
      </trkpt>
      <trkpt lat="46.2432" lon="4.68729">
        <ele>413.01593017578</ele>
        <time>2019-12-13T20:17:12.652Z</time>
      </trkpt>
      <trkpt lat="46.24318" lon="4.68734">
        <ele>412.52267456055</ele>
        <time>2019-12-13T20:17:15.174Z</time>
      </trkpt>
      <trkpt lat="46.2432" lon="4.68729">
        <ele>413.01593017578</ele>
        <time>2019-12-13T20:17:17.696Z</time>
      </trkpt>
      <trkpt lat="46.24327" lon="4.68735">
        <ele>411.71087646484</ele>
        <time>2019-12-13T20:17:20.220Z</time>
      </trkpt>
      <trkpt lat="46.24355" lon="4.68712">
        <ele>412.81790161133</ele>
        <time>2019-12-13T20:17:22.751Z</time>
      </trkpt>
      <trkpt lat="46.24413" lon="4.68637">
        <ele>420.52172851562</ele>
        <time>2019-12-13T20:17:25.297Z</time>
      </trkpt>
      <trkpt lat="46.24455" lon="4.68541">
        <ele>429.63806152344</ele>
        <time>2019-12-13T20:17:27.859Z</time>
      </trkpt>
      <trkpt lat="46.24488" lon="4.6849">
        <ele>433.19860839844</ele>
        <time>2019-12-13T20:17:30.431Z</time>
      </trkpt>
      <trkpt lat="46.24524" lon="4.68406">
        <ele>439.25424194336</ele>
        <time>2019-12-13T20:17:33.016Z</time>
      </trkpt>
      <trkpt lat="46.24622" lon="4.68191">
        <ele>464.99172973633</ele>
        <time>2019-12-13T20:17:35.637Z</time>
      </trkpt>
      <trkpt lat="46.24622" lon="4.68188">
        <ele>464.86022949219</ele>
        <time>2019-12-13T20:17:38.258Z</time>
      </trkpt>
      <trkpt lat="46.24624" lon="4.68173">
        <ele>464.96508789062</ele>
        <time>2019-12-13T20:17:40.881Z</time>
      </trkpt>
      <trkpt lat="46.24628" lon="4.68168">
        <ele>466.0680847168</ele>
        <time>2019-12-13T20:17:43.505Z</time>
      </trkpt>
      <trkpt lat="46.24628" lon="4.68168">
        <ele>466.07049560547</ele>
        <time>2019-12-13T20:17:46.129Z</time>
      </trkpt>
      <trkpt lat="46.24686" lon="4.68093">
        <ele>475.88229370117</ele>
        <time>2019-12-13T20:17:48.769Z</time>
      </trkpt>
      <trkpt lat="46.24723" lon="4.6801">
        <ele>490.03009033203</ele>
        <time>2019-12-13T20:17:51.423Z</time>
      </trkpt>
      <trkpt lat="46.24745" lon="4.6798">
        <ele>492.99203491211</ele>
        <time>2019-12-13T20:17:54.083Z</time>
      </trkpt>
      <trkpt lat="46.24759" lon="4.67935">
        <ele>496.22503662109</ele>
        <time>2019-12-13T20:17:56.750Z</time>
      </trkpt>
      <trkpt lat="46.24781" lon="4.6792">
        <ele>497.06024169922</ele>
        <time>2019-12-13T20:17:59.422Z</time>
      </trkpt>
      <trkpt lat="46.2479" lon="4.67902">
        <ele>499.23568725586</ele>
        <time>2019-12-13T20:18:02.097Z</time>
      </trkpt>
      <trkpt lat="46.24809" lon="4.67892">
        <ele>502.74987792969</ele>
        <time>2019-12-13T20:18:04.776Z</time>
      </trkpt>
      <trkpt lat="46.24859" lon="4.67834">
        <ele>501.83605957031</ele>
        <time>2019-12-13T20:18:07.468Z</time>
      </trkpt>
      <trkpt lat="46.24942" lon="4.67767">
        <ele>505.18487548828</ele>
        <time>2019-12-13T20:18:10.179Z</time>
      </trkpt>
      <trkpt lat="46.25032" lon="4.67717">
        <ele>510.18026733398</ele>
        <time>2019-12-13T20:18:12.909Z</time>
      </trkpt>
      <trkpt lat="46.25037" lon="4.67714">
        <ele>511.06094360352</ele>
        <time>2019-12-13T20:18:15.640Z</time>
      </trkpt>
      <trkpt lat="46.25041" lon="4.67726">
        <ele>510.24996948242</ele>
        <time>2019-12-13T20:18:18.373Z</time>
      </trkpt>
      <trkpt lat="46.25042" lon="4.67726">
        <ele>510.27258300781</ele>
        <time>2019-12-13T20:18:21.106Z</time>
      </trkpt>
      <trkpt lat="46.25042" lon="4.67728">
        <ele>510.07415771484</ele>
        <time>2019-12-13T20:18:23.839Z</time>
      </trkpt>
      <trkpt lat="46.25042" lon="4.67726">
        <ele>510.27258300781</ele>
        <time>2019-12-13T20:18:26.572Z</time>
      </trkpt>
      <trkpt lat="46.25041" lon="4.67726">
        <ele>510.24996948242</ele>
        <time>2019-12-13T20:18:29.305Z</time>
      </trkpt>
      <trkpt lat="46.25037" lon="4.67714">
        <ele>511.06094360352</ele>
        <time>2019-12-13T20:18:32.040Z</time>
      </trkpt>
      <trkpt lat="46.25152" lon="4.67624">
        <ele>529.46667480469</ele>
        <time>2019-12-13T20:18:34.801Z</time>
      </trkpt>
      <trkpt lat="46.25188" lon="4.67602">
        <ele>534.09136962891</ele>
        <time>2019-12-13T20:18:37.570Z</time>
      </trkpt>
      <trkpt lat="46.25203" lon="4.67593">
        <ele>535.56799316406</ele>
        <time>2019-12-13T20:18:40.343Z</time>
      </trkpt>
      <trkpt lat="46.25202" lon="4.67588">
        <ele>534.90637207031</ele>
        <time>2019-12-13T20:18:43.116Z</time>
      </trkpt>
      <trkpt lat="46.25203" lon="4.67593">
        <ele>535.56799316406</ele>
        <time>2019-12-13T20:18:45.890Z</time>
      </trkpt>
      <trkpt lat="46.25289" lon="4.67542">
        <ele>546.76818847656</ele>
        <time>2019-12-13T20:18:48.683Z</time>
      </trkpt>
      <trkpt lat="46.25355" lon="4.67491">
        <ele>544.78228759766</ele>
        <time>2019-12-13T20:18:51.491Z</time>
      </trkpt>
      <trkpt lat="46.2536" lon="4.67502">
        <ele>546.44146728516</ele>
        <time>2019-12-13T20:18:54.300Z</time>
      </trkpt>
      <trkpt lat="46.2539" lon="4.67467">
        <ele>548.18060302734</ele>
        <time>2019-12-13T20:18:57.117Z</time>
      </trkpt>
      <trkpt lat="46.25403" lon="4.67468">
        <ele>548.76995849609</ele>
        <time>2019-12-13T20:18:59.937Z</time>
      </trkpt>
      <trkpt lat="46.25488" lon="4.67413">
        <ele>555.84686279297</ele>
        <time>2019-12-13T20:19:02.775Z</time>
      </trkpt>
      <trkpt lat="46.2554" lon="4.67361">
        <ele>563.92810058594</ele>
        <time>2019-12-13T20:19:05.626Z</time>
      </trkpt>
      <trkpt lat="46.25555" lon="4.67347">
        <ele>566.15881347656</ele>
        <time>2019-12-13T20:19:08.481Z</time>
      </trkpt>
      <trkpt lat="46.25557" lon="4.67349">
        <ele>566.78460693359</ele>
        <time>2019-12-13T20:19:11.336Z</time>
      </trkpt>
      <trkpt lat="46.25557" lon="4.6735">
        <ele>566.71942138672</ele>
        <time>2019-12-13T20:19:14.191Z</time>
      </trkpt>
      <trkpt lat="46.25557" lon="4.67349">
        <ele>566.78460693359</ele>
        <time>2019-12-13T20:19:17.046Z</time>
      </trkpt>
      <trkpt lat="46.25566" lon="4.67356">
        <ele>568.65966796875</ele>
        <time>2019-12-13T20:19:19.903Z</time>
      </trkpt>
      <trkpt lat="46.25576" lon="4.67348">
        <ele>568.85278320312</ele>
        <time>2019-12-13T20:19:22.763Z</time>
      </trkpt>
      <trkpt lat="46.25576" lon="4.67348">
        <ele>568.85314941406</ele>
        <time>2019-12-13T20:19:25.623Z</time>
      </trkpt>
      <trkpt lat="46.25607" lon="4.67332">
        <ele>569.76672363281</ele>
        <time>2019-12-13T20:19:28.489Z</time>
      </trkpt>
      <trkpt lat="46.25686" lon="4.67267">
        <ele>580.49273681641</ele>
        <time>2019-12-13T20:19:31.373Z</time>
      </trkpt>
      <trkpt lat="46.2571" lon="4.67222">
        <ele>585.93780517578</ele>
        <time>2019-12-13T20:19:34.265Z</time>
      </trkpt>
      <trkpt lat="46.25775" lon="4.67136">
        <ele>597.67810058594</ele>
        <time>2019-12-13T20:19:37.175Z</time>
      </trkpt>
      <trkpt lat="46.25796" lon="4.6713">
        <ele>602.29931640625</ele>
        <time>2019-12-13T20:19:40.089Z</time>
      </trkpt>
      <trkpt lat="46.25817" lon="4.67113">
        <ele>607.96160888672</ele>
        <time>2019-12-13T20:19:43.008Z</time>
      </trkpt>
      <trkpt lat="46.2589" lon="4.67028">
        <ele>629.20550537109</ele>
        <time>2019-12-13T20:19:45.946Z</time>
      </trkpt>
      <trkpt lat="46.25904" lon="4.67026">
        <ele>631.66876220703</ele>
        <time>2019-12-13T20:19:48.887Z</time>
      </trkpt>
      <trkpt lat="46.25917" lon="4.67001">
        <ele>635.53051757812</ele>
        <time>2019-12-13T20:19:51.832Z</time>
      </trkpt>
      <trkpt lat="46.2593" lon="4.66989">
        <ele>637.71881103516</ele>
        <time>2019-12-13T20:19:54.780Z</time>
      </trkpt>
      <trkpt lat="46.25959" lon="4.66983">
        <ele>641.64385986328</ele>
        <time>2019-12-13T20:19:57.734Z</time>
      </trkpt>
      <trkpt lat="46.26005" lon="4.66953">
        <ele>649.82342529297</ele>
        <time>2019-12-13T20:20:00.698Z</time>
      </trkpt>
      <trkpt lat="46.26094" lon="4.66923">
        <ele>652.52276611328</ele>
        <time>2019-12-13T20:20:03.680Z</time>
      </trkpt>
      <trkpt lat="46.26152" lon="4.66886">
        <ele>654.95721435547</ele>
        <time>2019-12-13T20:20:06.675Z</time>
      </trkpt>
      <trkpt lat="46.26214" lon="4.66865">
        <ele>659.36657714844</ele>
        <time>2019-12-13T20:20:09.683Z</time>
      </trkpt>
      <trkpt lat="46.26231" lon="4.66865">
        <ele>659.37213134766</ele>
        <time>2019-12-13T20:20:12.694Z</time>
      </trkpt>
      <trkpt lat="46.26312" lon="4.66894">
        <ele>655.2275390625</ele>
        <time>2019-12-13T20:20:15.722Z</time>
      </trkpt>
      <trkpt lat="46.2636" lon="4.66866">
        <ele>655.65753173828</ele>
        <time>2019-12-13T20:20:18.760Z</time>
      </trkpt>
      <trkpt lat="46.26405" lon="4.66825">
        <ele>653.6064453125</ele>
        <time>2019-12-13T20:20:21.809Z</time>
      </trkpt>
      <trkpt lat="46.26424" lon="4.66821">
        <ele>655.96215820312</ele>
        <time>2019-12-13T20:20:24.862Z</time>
      </trkpt>
      <trkpt lat="46.2644" lon="4.66827">
        <ele>657.51318359375</ele>
        <time>2019-12-13T20:20:27.918Z</time>
      </trkpt>
      <trkpt lat="46.2646" lon="4.66834">
        <ele>658.91833496094</ele>
        <time>2019-12-13T20:20:30.978Z</time>
      </trkpt>
      <trkpt lat="46.2646" lon="4.66834">
        <ele>658.91796875</ele>
        <time>2019-12-13T20:20:34.038Z</time>
      </trkpt>
      <trkpt lat="46.26467" lon="4.66836">
        <ele>659.42541503906</ele>
        <time>2019-12-13T20:20:37.100Z</time>
      </trkpt>
      <trkpt lat="46.2647" lon="4.66846">
        <ele>660.15875244141</ele>
        <time>2019-12-13T20:20:40.163Z</time>
      </trkpt>
      <trkpt lat="46.26518" lon="4.66965">
        <ele>667.78918457031</ele>
        <time>2019-12-13T20:20:43.245Z</time>
      </trkpt>
      <trkpt lat="46.26537" lon="4.67036">
        <ele>668.42822265625</ele>
        <time>2019-12-13T20:20:46.338Z</time>
      </trkpt>
      <trkpt lat="46.26568" lon="4.67222">
        <ele>656.23760986328</ele>
        <time>2019-12-13T20:20:49.457Z</time>
      </trkpt>
      <trkpt lat="46.26619" lon="4.67293">
        <ele>653.14764404297</ele>
        <time>2019-12-13T20:20:52.590Z</time>
      </trkpt>
      <trkpt lat="46.26619" lon="4.67293">
        <ele>653.14874267578</ele>
        <time>2019-12-13T20:20:55.723Z</time>
      </trkpt>
      <trkpt lat="46.2669" lon="4.67342">
        <ele>656.11737060547</ele>
        <time>2019-12-13T20:20:58.872Z</time>
      </trkpt>
      <trkpt lat="46.26716" lon="4.67371">
        <ele>655.60235595703</ele>
        <time>2019-12-13T20:21:02.028Z</time>
      </trkpt>
      <trkpt lat="46.26732" lon="4.67405">
        <ele>653.72357177734</ele>
        <time>2019-12-13T20:21:05.190Z</time>
      </trkpt>
      <trkpt lat="46.26737" lon="4.67447">
        <ele>648.98651123047</ele>
        <time>2019-12-13T20:21:08.357Z</time>
      </trkpt>
      <trkpt lat="46.26732" lon="4.67492">
        <ele>645.98413085938</ele>
        <time>2019-12-13T20:21:11.531Z</time>
      </trkpt>
      <trkpt lat="46.26706" lon="4.6758">
        <ele>638.00152587891</ele>
        <time>2019-12-13T20:21:14.718Z</time>
      </trkpt>
      <trkpt lat="46.26698" lon="4.67607">
        <ele>635.49633789062</ele>
        <time>2019-12-13T20:21:17.909Z</time>
      </trkpt>
      <trkpt lat="46.26703" lon="4.67611">
        <ele>637.20172119141</ele>
        <time>2019-12-13T20:21:21.101Z</time>
      </trkpt>
      <trkpt lat="46.26698" lon="4.67607">
        <ele>635.49633789062</ele>
        <time>2019-12-13T20:21:24.294Z</time>
      </trkpt>
      <trkpt lat="46.26693" lon="4.67625">
        <ele>633.83752441406</ele>
        <time>2019-12-13T20:21:27.490Z</time>
      </trkpt>
      <trkpt lat="46.26675" lon="4.67712">
        <ele>629.54919433594</ele>
        <time>2019-12-13T20:21:30.699Z</time>
      </trkpt>
      <trkpt lat="46.26674" lon="4.67771">
        <ele>627.97930908203</ele>
        <time>2019-12-13T20:21:33.916Z</time>
      </trkpt>
      <trkpt lat="46.26684" lon="4.67819">
        <ele>627.61163330078</ele>
        <time>2019-12-13T20:21:37.140Z</time>
      </trkpt>
      <trkpt lat="46.26704" lon="4.67875">
        <ele>628.37817382812</ele>
        <time>2019-12-13T20:21:40.373Z</time>
      </trkpt>
      <trkpt lat="46.26717" lon="4.67904">
        <ele>629.88427734375</ele>
        <time>2019-12-13T20:21:43.610Z</time>
      </trkpt>
      <trkpt lat="46.26722" lon="4.67936">
        <ele>627.95336914062</ele>
        <time>2019-12-13T20:21:46.852Z</time>
      </trkpt>
      <trkpt lat="46.2672" lon="4.68025">
        <ele>627.57556152344</ele>
        <time>2019-12-13T20:21:50.106Z</time>
      </trkpt>
      <trkpt lat="46.2672" lon="4.68025">
        <ele>627.57843017578</ele>
        <time>2019-12-13T20:21:53.360Z</time>
      </trkpt>
      <trkpt lat="46.2672" lon="4.68034">
        <ele>627.78253173828</ele>
        <time>2019-12-13T20:21:56.615Z</time>
      </trkpt>
      <trkpt lat="46.26719" lon="4.68044">
        <ele>628.97296142578</ele>
        <time>2019-12-13T20:21:59.872Z</time>
      </trkpt>
      <trkpt lat="46.26712" lon="4.6807">
        <ele>630.56188964844</ele>
        <time>2019-12-13T20:22:03.133Z</time>
      </trkpt>
      <trkpt lat="46.26711" lon="4.68069">
        <ele>630.00610351562</ele>
        <time>2019-12-13T20:22:06.394Z</time>
      </trkpt>
      <trkpt lat="46.26712" lon="4.6807">
        <ele>630.56188964844</ele>
        <time>2019-12-13T20:22:09.655Z</time>
      </trkpt>
      <trkpt lat="46.26678" lon="4.68189">
        <ele>634.84393310547</ele>
        <time>2019-12-13T20:22:12.934Z</time>
      </trkpt>
      <trkpt lat="46.26622" lon="4.68337">
        <ele>628.82452392578</ele>
        <time>2019-12-13T20:22:16.237Z</time>
      </trkpt>
      <trkpt lat="46.26595" lon="4.68442">
        <ele>624.62652587891</ele>
        <time>2019-12-13T20:22:19.555Z</time>
      </trkpt>
      <trkpt lat="46.26569" lon="4.68659">
        <ele>614.52685546875</ele>
        <time>2019-12-13T20:22:22.904Z</time>
      </trkpt>
      <trkpt lat="46.26559" lon="4.68701">
        <ele>611.93548583984</ele>
        <time>2019-12-13T20:22:26.259Z</time>
      </trkpt>
      <trkpt lat="46.26549" lon="4.68739">
        <ele>609.30712890625</ele>
        <time>2019-12-13T20:22:29.620Z</time>
      </trkpt>
      <trkpt lat="46.26551" lon="4.6874">
        <ele>608.91717529297</ele>
        <time>2019-12-13T20:22:32.981Z</time>
      </trkpt>
      <trkpt lat="46.26551" lon="4.6874">
        <ele>608.91864013672</ele>
        <time>2019-12-13T20:22:36.342Z</time>
      </trkpt>
      <trkpt lat="46.26549" lon="4.68739">
        <ele>609.30712890625</ele>
        <time>2019-12-13T20:22:39.703Z</time>
      </trkpt>
      <trkpt lat="46.26525" lon="4.68837">
        <ele>600.58483886719</ele>
        <time>2019-12-13T20:22:43.079Z</time>
      </trkpt>
      <trkpt lat="46.26519" lon="4.68889">
        <ele>595.94641113281</ele>
        <time>2019-12-13T20:22:46.462Z</time>
      </trkpt>
      <trkpt lat="46.26479" lon="4.69023">
        <ele>587.33087158203</ele>
        <time>2019-12-13T20:22:49.865Z</time>
      </trkpt>
      <trkpt lat="46.26479" lon="4.69023">
        <ele>587.330078125</ele>
        <time>2019-12-13T20:22:53.268Z</time>
      </trkpt>
      <trkpt lat="46.26477" lon="4.69026">
        <ele>586.94702148438</ele>
        <time>2019-12-13T20:22:56.672Z</time>
      </trkpt>
      <trkpt lat="46.2646" lon="4.6906">
        <ele>584.55767822266</ele>
        <time>2019-12-13T20:23:00.082Z</time>
      </trkpt>
      <trkpt lat="46.2646" lon="4.6906">
        <ele>584.46820068359</ele>
        <time>2019-12-13T20:23:03.492Z</time>
      </trkpt>
      <trkpt lat="46.2646" lon="4.6906">
        <ele>584.55767822266</ele>
        <time>2019-12-13T20:23:06.902Z</time>
      </trkpt>
      <trkpt lat="46.26454" lon="4.6907">
        <ele>583.98345947266</ele>
        <time>2019-12-13T20:23:10.313Z</time>
      </trkpt>
      <trkpt lat="46.26321" lon="4.69262">
        <ele>566.88861083984</ele>
        <time>2019-12-13T20:23:13.762Z</time>
      </trkpt>
      <trkpt lat="46.263" lon="4.69292">
        <ele>565.10394287109</ele>
        <time>2019-12-13T20:23:17.217Z</time>
      </trkpt>
      <trkpt lat="46.26299" lon="4.6929">
        <ele>565.39074707031</ele>
        <time>2019-12-13T20:23:20.672Z</time>
      </trkpt>
      <trkpt lat="46.263" lon="4.69292">
        <ele>565.10394287109</ele>
        <time>2019-12-13T20:23:24.128Z</time>
      </trkpt>
      <trkpt lat="46.26293" lon="4.69302">
        <ele>564.32757568359</ele>
        <time>2019-12-13T20:23:27.586Z</time>
      </trkpt>
      <trkpt lat="46.26293" lon="4.69302">
        <ele>564.32708740234</ele>
        <time>2019-12-13T20:23:31.044Z</time>
      </trkpt>
      <trkpt lat="46.26276" lon="4.69315">
        <ele>563.81268310547</ele>
        <time>2019-12-13T20:23:34.506Z</time>
      </trkpt>
      <trkpt lat="46.26276" lon="4.69315">
        <ele>563.81219482422</ele>
        <time>2019-12-13T20:23:37.968Z</time>
      </trkpt>
      <trkpt lat="46.26245" lon="4.69338">
        <ele>563.71160888672</ele>
        <time>2019-12-13T20:23:41.437Z</time>
      </trkpt>
      <trkpt lat="46.26182" lon="4.69348">
        <ele>559.75885009766</ele>
        <time>2019-12-13T20:23:44.918Z</time>
      </trkpt>
      <trkpt lat="46.26149" lon="4.69339">
        <ele>557.42974853516</ele>
        <time>2019-12-13T20:23:48.406Z</time>
      </trkpt>
      <trkpt lat="46.2614" lon="4.69336">
        <ele>555.56097412109</ele>
        <time>2019-12-13T20:23:51.896Z</time>
      </trkpt>
      <trkpt lat="46.26135" lon="4.69349">
        <ele>552.18841552734</ele>
        <time>2019-12-13T20:23:55.388Z</time>
      </trkpt>
      <trkpt lat="46.26139" lon="4.69365">
        <ele>551.56488037109</ele>
        <time>2019-12-13T20:23:58.882Z</time>
      </trkpt>
      <trkpt lat="46.2614" lon="4.69365">
        <ele>551.72021484375</ele>
        <time>2019-12-13T20:24:02.376Z</time>
      </trkpt>
      <trkpt lat="46.26139" lon="4.69365">
        <ele>551.56488037109</ele>
        <time>2019-12-13T20:24:05.871Z</time>
      </trkpt>
      <trkpt lat="46.26165" lon="4.69463">
        <ele>543.97265625</ele>
        <time>2019-12-13T20:24:09.380Z</time>
      </trkpt>
      <trkpt lat="46.26179" lon="4.69645">
        <ele>514.89544677734</ele>
        <time>2019-12-13T20:24:12.915Z</time>
      </trkpt>
      <trkpt lat="46.2619" lon="4.69726">
        <ele>502.37875366211</ele>
        <time>2019-12-13T20:24:16.461Z</time>
      </trkpt>
      <trkpt lat="46.26201" lon="4.69758">
        <ele>497.48721313477</ele>
        <time>2019-12-13T20:24:20.012Z</time>
      </trkpt>
      <trkpt lat="46.26198" lon="4.69778">
        <ele>494.98559570312</ele>
        <time>2019-12-13T20:24:23.566Z</time>
      </trkpt>
      <trkpt lat="46.26191" lon="4.69824">
        <ele>489.10726928711</ele>
        <time>2019-12-13T20:24:27.126Z</time>
      </trkpt>
      <trkpt lat="46.26189" lon="4.69823">
        <ele>489.16604614258</ele>
        <time>2019-12-13T20:24:30.687Z</time>
      </trkpt>
      <trkpt lat="46.26191" lon="4.69824">
        <ele>489.10726928711</ele>
        <time>2019-12-13T20:24:34.248Z</time>
      </trkpt>
      <trkpt lat="46.26185" lon="4.69858">
        <ele>485.02032470703</ele>
        <time>2019-12-13T20:24:37.814Z</time>
      </trkpt>
      <trkpt lat="46.26169" lon="4.69776">
        <ele>495.27124023438</ele>
        <time>2019-12-13T20:24:41.391Z</time>
      </trkpt>
      <trkpt lat="46.26134" lon="4.69703">
        <ele>501.19393920898</ele>
        <time>2019-12-13T20:24:44.981Z</time>
      </trkpt>
      <trkpt lat="46.2611" lon="4.69686">
        <ele>499.48031616211</ele>
        <time>2019-12-13T20:24:48.576Z</time>
      </trkpt>
      <trkpt lat="46.2608" lon="4.69664">
        <ele>497.29638671875</ele>
        <time>2019-12-13T20:24:52.178Z</time>
      </trkpt>
      <trkpt lat="46.2608" lon="4.69663">
        <ele>497.60311889648</ele>
        <time>2019-12-13T20:24:55.780Z</time>
      </trkpt>
      <trkpt lat="46.2608" lon="4.69664">
        <ele>497.29638671875</ele>
        <time>2019-12-13T20:24:59.382Z</time>
      </trkpt>
      <trkpt lat="46.26046" lon="4.6964">
        <ele>494.60363769531</ele>
        <time>2019-12-13T20:25:02.992Z</time>
      </trkpt>
      <trkpt lat="46.2596" lon="4.69622">
        <ele>478.36221313477</ele>
        <time>2019-12-13T20:25:06.619Z</time>
      </trkpt>
      <trkpt lat="46.25926" lon="4.69615">
        <ele>472.24389648438</ele>
        <time>2019-12-13T20:25:10.253Z</time>
      </trkpt>
      <trkpt lat="46.25925" lon="4.69624">
        <ele>470.31240844727</ele>
        <time>2019-12-13T20:25:13.888Z</time>
      </trkpt>
      <trkpt lat="46.25926" lon="4.69615">
        <ele>472.24389648438</ele>
        <time>2019-12-13T20:25:17.524Z</time>
      </trkpt>
      <trkpt lat="46.25921" lon="4.69614">
        <ele>471.3454284668</ele>
        <time>2019-12-13T20:25:21.161Z</time>
      </trkpt>
      <trkpt lat="46.25909" lon="4.69617">
        <ele>468.29284667969</ele>
        <time>2019-12-13T20:25:24.801Z</time>
      </trkpt>
      <trkpt lat="46.25872" lon="4.69589">
        <ele>465.9885559082</ele>
        <time>2019-12-13T20:25:28.449Z</time>
      </trkpt>
      <trkpt lat="46.25849" lon="4.69583">
        <ele>463.82955932617</ele>
        <time>2019-12-13T20:25:32.102Z</time>
      </trkpt>
      <trkpt lat="46.258" lon="4.69581">
        <ele>456.78747558594</ele>
        <time>2019-12-13T20:25:35.765Z</time>
      </trkpt>
      <trkpt lat="46.25758" lon="4.69601">
        <ele>448.67163085938</ele>
        <time>2019-12-13T20:25:39.437Z</time>
      </trkpt>
      <trkpt lat="46.25755" lon="4.69608">
        <ele>448.17211914062</ele>
        <time>2019-12-13T20:25:43.110Z</time>
      </trkpt>
      <trkpt lat="46.25731" lon="4.69657">
        <ele>443.70349121094</ele>
        <time>2019-12-13T20:25:46.791Z</time>
      </trkpt>
      <trkpt lat="46.25731" lon="4.69657">
        <ele>443.70388793945</ele>
        <time>2019-12-13T20:25:50.472Z</time>
      </trkpt>
      <trkpt lat="46.25722" lon="4.69676">
        <ele>442.1354675293</ele>
        <time>2019-12-13T20:25:54.156Z</time>
      </trkpt>
      <trkpt lat="46.25655" lon="4.69697">
        <ele>442.33331298828</ele>
        <time>2019-12-13T20:25:57.854Z</time>
      </trkpt>
      <trkpt lat="46.25608" lon="4.69727">
        <ele>443.28073120117</ele>
        <time>2019-12-13T20:26:01.562Z</time>
      </trkpt>
      <trkpt lat="46.2559" lon="4.69739">
        <ele>443.96694946289</ele>
        <time>2019-12-13T20:26:05.274Z</time>
      </trkpt>
      <trkpt lat="46.25553" lon="4.69763">
        <ele>447.59924316406</ele>
        <time>2019-12-13T20:26:08.994Z</time>
      </trkpt>
      <trkpt lat="46.25555" lon="4.69769">
        <ele>448.15298461914</ele>
        <time>2019-12-13T20:26:12.715Z</time>
      </trkpt>
      <trkpt lat="46.25553" lon="4.69763">
        <ele>447.59924316406</ele>
        <time>2019-12-13T20:26:16.437Z</time>
      </trkpt>
      <trkpt lat="46.25546" lon="4.69769">
        <ele>447.66290283203</ele>
        <time>2019-12-13T20:26:20.161Z</time>
      </trkpt>
      <trkpt lat="46.25493" lon="4.69817">
        <ele>452.24389648438</ele>
        <time>2019-12-13T20:26:23.897Z</time>
      </trkpt>
      <trkpt lat="46.25433" lon="4.69898">
        <ele>457.09820556641</ele>
        <time>2019-12-13T20:26:27.650Z</time>
      </trkpt>
      <trkpt lat="46.25401" lon="4.69943">
        <ele>458.64688110352</ele>
        <time>2019-12-13T20:26:31.412Z</time>
      </trkpt>
      <trkpt lat="46.25401" lon="4.69943">
        <ele>458.64627075195</ele>
        <time>2019-12-13T20:26:35.174Z</time>
      </trkpt>
      <trkpt lat="46.2539" lon="4.69957">
        <ele>458.59484863281</ele>
        <time>2019-12-13T20:26:38.939Z</time>
      </trkpt>
      <trkpt lat="46.25364" lon="4.70021">
        <ele>455.75427246094</ele>
        <time>2019-12-13T20:26:42.714Z</time>
      </trkpt>
      <trkpt lat="46.25356" lon="4.70069">
        <ele>454.1252746582</ele>
        <time>2019-12-13T20:26:46.496Z</time>
      </trkpt>
      <trkpt lat="46.25315" lon="4.70159">
        <ele>453.36074829102</ele>
        <time>2019-12-13T20:26:50.293Z</time>
      </trkpt>
      <trkpt lat="46.25306" lon="4.70178">
        <ele>451.97705078125</ele>
        <time>2019-12-13T20:26:54.093Z</time>
      </trkpt>
      <trkpt lat="46.25306" lon="4.70178">
        <ele>451.97775268555</ele>
        <time>2019-12-13T20:26:57.893Z</time>
      </trkpt>
      <trkpt lat="46.25295" lon="4.70201">
        <ele>450.38079833984</ele>
        <time>2019-12-13T20:27:01.697Z</time>
      </trkpt>
      <trkpt lat="46.25285" lon="4.70203">
        <ele>450.01907348633</ele>
        <time>2019-12-13T20:27:05.503Z</time>
      </trkpt>
      <trkpt lat="46.25284" lon="4.70195">
        <ele>450.083984375</ele>
        <time>2019-12-13T20:27:09.310Z</time>
      </trkpt>
      <trkpt lat="46.25284" lon="4.70195">
        <ele>450.08404541016</ele>
        <time>2019-12-13T20:27:13.117Z</time>
      </trkpt>
      <trkpt lat="46.25285" lon="4.70203">
        <ele>450.01907348633</ele>
        <time>2019-12-13T20:27:16.925Z</time>
      </trkpt>
      <trkpt lat="46.25204" lon="4.70223">
        <ele>444.07485961914</ele>
        <time>2019-12-13T20:27:20.749Z</time>
      </trkpt>
      <trkpt lat="46.25165" lon="4.70241">
        <ele>438.99566650391</ele>
        <time>2019-12-13T20:27:24.582Z</time>
      </trkpt>
      <trkpt lat="46.25116" lon="4.70262">
        <ele>434.10299682617</ele>
        <time>2019-12-13T20:27:28.425Z</time>
      </trkpt>
      <trkpt lat="46.25116" lon="4.7026">
        <ele>433.77505493164</ele>
        <time>2019-12-13T20:27:32.268Z</time>
      </trkpt>
      <trkpt lat="46.25116" lon="4.70262">
        <ele>434.10299682617</ele>
        <time>2019-12-13T20:27:36.112Z</time>
      </trkpt>
      <trkpt lat="46.25068" lon="4.70284">
        <ele>429.46560668945</ele>
        <time>2019-12-13T20:27:39.966Z</time>
      </trkpt>
      <trkpt lat="46.2505" lon="4.70297">
        <ele>427.57482910156</ele>
        <time>2019-12-13T20:27:43.824Z</time>
      </trkpt>
      <trkpt lat="46.25003" lon="4.70332">
        <ele>422.90286254883</ele>
        <time>2019-12-13T20:27:47.692Z</time>
      </trkpt>
      <trkpt lat="46.25001" lon="4.70326">
        <ele>421.84716796875</ele>
        <time>2019-12-13T20:27:51.561Z</time>
      </trkpt>
      <trkpt lat="46.25003" lon="4.70332">
        <ele>422.90286254883</ele>
        <time>2019-12-13T20:27:55.431Z</time>
      </trkpt>
      <trkpt lat="46.2499" lon="4.70341">
        <ele>422.4153137207</ele>
        <time>2019-12-13T20:27:59.304Z</time>
      </trkpt>
      <trkpt lat="46.24985" lon="4.70343">
        <ele>421.97171020508</ele>
        <time>2019-12-13T20:28:03.178Z</time>
      </trkpt>
      <trkpt lat="46.24968" lon="4.70349">
        <ele>419.63201904297</ele>
        <time>2019-12-13T20:28:07.055Z</time>
      </trkpt>
      <trkpt lat="46.24937" lon="4.70362">
        <ele>415.17016601562</ele>
        <time>2019-12-13T20:28:10.939Z</time>
      </trkpt>
      <trkpt lat="46.24937" lon="4.70362">
        <ele>415.16845703125</ele>
        <time>2019-12-13T20:28:14.823Z</time>
      </trkpt>
      <trkpt lat="46.2493" lon="4.70363">
        <ele>413.8583984375</ele>
        <time>2019-12-13T20:28:18.708Z</time>
      </trkpt>
      <trkpt lat="46.2493" lon="4.70363">
        <ele>413.85928344727</ele>
        <time>2019-12-13T20:28:22.593Z</time>
      </trkpt>
      <trkpt lat="46.24937" lon="4.70362">
        <ele>415.16845703125</ele>
        <time>2019-12-13T20:28:26.480Z</time>
      </trkpt>
      <trkpt lat="46.24933" lon="4.70377">
        <ele>416.31011962891</ele>
        <time>2019-12-13T20:28:30.369Z</time>
      </trkpt>
      <trkpt lat="46.24908" lon="4.70401">
        <ele>415.11575317383</ele>
        <time>2019-12-13T20:28:34.264Z</time>
      </trkpt>
      <trkpt lat="46.24918" lon="4.70408">
        <ele>417.75314331055</ele>
        <time>2019-12-13T20:28:38.161Z</time>
      </trkpt>
      <trkpt lat="46.24926" lon="4.70413">
        <ele>419.69836425781</ele>
        <time>2019-12-13T20:28:42.060Z</time>
      </trkpt>
      <trkpt lat="46.24915" lon="4.70449">
        <ele>424.65423583984</ele>
        <time>2019-12-13T20:28:45.964Z</time>
      </trkpt>
      <trkpt lat="46.24895" lon="4.70464">
        <ele>424.59329223633</ele>
        <time>2019-12-13T20:28:49.873Z</time>
      </trkpt>
      <trkpt lat="46.24897" lon="4.70468">
        <ele>425.59072875977</ele>
        <time>2019-12-13T20:28:53.782Z</time>
      </trkpt>
      <trkpt lat="46.24897" lon="4.70468">
        <ele>425.58947753906</ele>
        <time>2019-12-13T20:28:57.691Z</time>
      </trkpt>
      <trkpt lat="46.24895" lon="4.70464">
        <ele>424.59329223633</ele>
        <time>2019-12-13T20:29:01.601Z</time>
      </trkpt>
      <trkpt lat="46.24846" lon="4.705">
        <ele>424.77465820312</ele>
        <time>2019-12-13T20:29:05.522Z</time>
      </trkpt>
      <trkpt lat="46.24791" lon="4.70554">
        <ele>428.78619384766</ele>
        <time>2019-12-13T20:29:09.456Z</time>
      </trkpt>
      <trkpt lat="46.24755" lon="4.706">
        <ele>430.49920654297</ele>
        <time>2019-12-13T20:29:13.400Z</time>
      </trkpt>
      <trkpt lat="46.2474" lon="4.70635">
        <ele>433.49795532227</ele>
        <time>2019-12-13T20:29:17.350Z</time>
      </trkpt>
      <trkpt lat="46.24708" lon="4.7071">
        <ele>436.54501342773</ele>
        <time>2019-12-13T20:29:21.312Z</time>
      </trkpt>
      <trkpt lat="46.24706" lon="4.70708">
        <ele>435.88278198242</ele>
        <time>2019-12-13T20:29:25.275Z</time>
      </trkpt>
      <trkpt lat="46.24708" lon="4.7071">
        <ele>436.54501342773</ele>
        <time>2019-12-13T20:29:29.238Z</time>
      </trkpt>
      <trkpt lat="46.24706" lon="4.70716">
        <ele>436.69235229492</ele>
        <time>2019-12-13T20:29:33.202Z</time>
      </trkpt>
      <trkpt lat="46.24663" lon="4.70788">
        <ele>437.71450805664</ele>
        <time>2019-12-13T20:29:37.179Z</time>
      </trkpt>
      <trkpt lat="46.24631" lon="4.70877">
        <ele>438.18493652344</ele>
        <time>2019-12-13T20:29:41.170Z</time>
      </trkpt>
      <trkpt lat="46.24627" lon="4.70921">
        <ele>438.79888916016</ele>
        <time>2019-12-13T20:29:45.167Z</time>
      </trkpt>
      <trkpt lat="46.24622" lon="4.7098">
        <ele>437.73199462891</ele>
        <time>2019-12-13T20:29:49.172Z</time>
      </trkpt>
      <trkpt lat="46.24616" lon="4.7101">
        <ele>435.07525634766</ele>
        <time>2019-12-13T20:29:53.182Z</time>
      </trkpt>
      <trkpt lat="46.24612" lon="4.71008">
        <ele>434.14437866211</ele>
        <time>2019-12-13T20:29:57.193Z</time>
      </trkpt>
      <trkpt lat="46.24616" lon="4.7101">
        <ele>435.07525634766</ele>
        <time>2019-12-13T20:30:01.204Z</time>
      </trkpt>
      <trkpt lat="46.24612" lon="4.71028">
        <ele>433.44546508789</ele>
        <time>2019-12-13T20:30:05.218Z</time>
      </trkpt>
      <trkpt lat="46.24622" lon="4.71046">
        <ele>435.33773803711</ele>
        <time>2019-12-13T20:30:09.235Z</time>
      </trkpt>
      <trkpt lat="46.24648" lon="4.71145">
        <ele>437.87713623047</ele>
        <time>2019-12-13T20:30:13.267Z</time>
      </trkpt>
      <trkpt lat="46.24681" lon="4.71196">
        <ele>441.63589477539</ele>
        <time>2019-12-13T20:30:17.308Z</time>
      </trkpt>
      <trkpt lat="46.24691" lon="4.71238">
        <ele>440.84674072266</ele>
        <time>2019-12-13T20:30:21.356Z</time>
      </trkpt>
      <trkpt lat="46.24693" lon="4.71243">
        <ele>440.74157714844</ele>
        <time>2019-12-13T20:30:25.404Z</time>
      </trkpt>
      <trkpt lat="46.24691" lon="4.71258">
        <ele>439.56225585938</ele>
        <time>2019-12-13T20:30:29.455Z</time>
      </trkpt>
      <trkpt lat="46.24711" lon="4.71327">
        <ele>437.07244873047</ele>
        <time>2019-12-13T20:30:33.516Z</time>
      </trkpt>
      <trkpt lat="46.24711" lon="4.71327">
        <ele>437.07104492188</ele>
        <time>2019-12-13T20:30:37.577Z</time>
      </trkpt>
      <trkpt lat="46.24711" lon="4.71327">
        <ele>437.07244873047</ele>
        <time>2019-12-13T20:30:41.638Z</time>
      </trkpt>
      <trkpt lat="46.24693" lon="4.71351">
        <ele>432.21319580078</ele>
        <time>2019-12-13T20:30:45.704Z</time>
      </trkpt>
      <trkpt lat="46.24693" lon="4.71351">
        <ele>432.21228027344</ele>
        <time>2019-12-13T20:30:49.770Z</time>
      </trkpt>
      <trkpt lat="46.24671" lon="4.71347">
        <ele>430.15270996094</ele>
        <time>2019-12-13T20:30:53.840Z</time>
      </trkpt>
      <trkpt lat="46.24563" lon="4.71496">
        <ele>406.46286010742</ele>
        <time>2019-12-13T20:30:57.940Z</time>
      </trkpt>
      <trkpt lat="46.24535" lon="4.7155">
        <ele>398.52984619141</ele>
        <time>2019-12-13T20:31:02.050Z</time>
      </trkpt>
      <trkpt lat="46.24455" lon="4.71674">
        <ele>380.28494262695</ele>
        <time>2019-12-13T20:31:06.183Z</time>
      </trkpt>
      <trkpt lat="46.2444" lon="4.71699">
        <ele>377.77908325195</ele>
        <time>2019-12-13T20:31:10.321Z</time>
      </trkpt>
      <trkpt lat="46.24415" lon="4.7175">
        <ele>373.32989501953</ele>
        <time>2019-12-13T20:31:14.467Z</time>
      </trkpt>
      <trkpt lat="46.24407" lon="4.71773">
        <ele>373.69030761719</ele>
        <time>2019-12-13T20:31:18.617Z</time>
      </trkpt>
      <trkpt lat="46.24427" lon="4.71866">
        <ele>366.25131225586</ele>
        <time>2019-12-13T20:31:22.780Z</time>
      </trkpt>
      <trkpt lat="46.24485" lon="4.71943">
        <ele>359.00967407227</ele>
        <time>2019-12-13T20:31:26.959Z</time>
      </trkpt>
      <trkpt lat="46.24534" lon="4.72009">
        <ele>350.44046020508</ele>
        <time>2019-12-13T20:31:31.152Z</time>
      </trkpt>
      <trkpt lat="46.24502" lon="4.7204">
        <ele>351.66333007812</ele>
        <time>2019-12-13T20:31:35.352Z</time>
      </trkpt>
      <trkpt lat="46.24438" lon="4.72082">
        <ele>350.15362548828</ele>
        <time>2019-12-13T20:31:39.566Z</time>
      </trkpt>
      <trkpt lat="46.24411" lon="4.72084">
        <ele>349.56149291992</ele>
        <time>2019-12-13T20:31:43.786Z</time>
      </trkpt>
      <trkpt lat="46.24348" lon="4.72052">
        <ele>346.97882080078</ele>
        <time>2019-12-13T20:31:48.019Z</time>
      </trkpt>
      <trkpt lat="46.24272" lon="4.71981">
        <ele>337.98983764648</ele>
        <time>2019-12-13T20:31:52.270Z</time>
      </trkpt>
      <trkpt lat="46.24269" lon="4.71983">
        <ele>337.19555664062</ele>
        <time>2019-12-13T20:31:56.522Z</time>
      </trkpt>
      <trkpt lat="46.24255" lon="4.71992">
        <ele>334.05606079102</ele>
        <time>2019-12-13T20:32:00.777Z</time>
      </trkpt>
      <trkpt lat="46.24241" lon="4.72018">
        <ele>330.73495483398</ele>
        <time>2019-12-13T20:32:05.037Z</time>
      </trkpt>
      <trkpt lat="46.24217" lon="4.72035">
        <ele>326.23834228516</ele>
        <time>2019-12-13T20:32:09.302Z</time>
      </trkpt>
      <trkpt lat="46.24216" lon="4.72038">
        <ele>325.98583984375</ele>
        <time>2019-12-13T20:32:13.567Z</time>
      </trkpt>
      <trkpt lat="46.24203" lon="4.72074">
        <ele>322.21896362305</ele>
        <time>2019-12-13T20:32:17.838Z</time>
      </trkpt>
      <trkpt lat="46.24161" lon="4.72098">
        <ele>315.02478027344</ele>
        <time>2019-12-13T20:32:22.118Z</time>
      </trkpt>
      <trkpt lat="46.24161" lon="4.72098">
        <ele>314.94384765625</ele>
        <time>2019-12-13T20:32:26.398Z</time>
      </trkpt>
      <trkpt lat="46.24117" lon="4.72095">
        <ele>308.80743408203</ele>
        <time>2019-12-13T20:32:30.687Z</time>
      </trkpt>
      <trkpt lat="46.24104" lon="4.72122">
        <ele>306.96502685547</ele>
        <time>2019-12-13T20:32:34.981Z</time>
      </trkpt>
      <trkpt lat="46.24103" lon="4.72126">
        <ele>306.50646972656</ele>
        <time>2019-12-13T20:32:39.275Z</time>
      </trkpt>
      <trkpt lat="46.24089" lon="4.72114">
        <ele>305.20788574219</ele>
        <time>2019-12-13T20:32:43.572Z</time>
      </trkpt>
      <trkpt lat="46.24059" lon="4.72089">
        <ele>302.14739990234</ele>
        <time>2019-12-13T20:32:47.876Z</time>
      </trkpt>
      <trkpt lat="46.24028" lon="4.72074">
        <ele>300.47863769531</ele>
        <time>2019-12-13T20:32:52.187Z</time>
      </trkpt>
      <trkpt lat="46.24028" lon="4.72074">
        <ele>300.46160888672</ele>
        <time>2019-12-13T20:32:56.498Z</time>
      </trkpt>
      <trkpt lat="46.24045" lon="4.72143">
        <ele>299.67916870117</ele>
        <time>2019-12-13T20:33:00.819Z</time>
      </trkpt>
      <trkpt lat="46.24051" lon="4.72165">
        <ele>299.02792358398</ele>
        <time>2019-12-13T20:33:05.143Z</time>
      </trkpt>
      <trkpt lat="46.24072" lon="4.7222">
        <ele>297.95663452148</ele>
        <time>2019-12-13T20:33:09.476Z</time>
      </trkpt>
      <trkpt lat="46.24065" lon="4.72225">
        <ele>297.39575195312</ele>
        <time>2019-12-13T20:33:13.811Z</time>
      </trkpt>
      <trkpt lat="46.23858" lon="4.72369">
        <ele>274.70010375977</ele>
        <time>2019-12-13T20:33:18.192Z</time>
      </trkpt>
      <trkpt lat="46.23825" lon="4.72413">
        <ele>271.24340820312</ele>
        <time>2019-12-13T20:33:22.582Z</time>
      </trkpt>
      <trkpt lat="46.23822" lon="4.7242">
        <ele>270.87573242188</ele>
        <time>2019-12-13T20:33:26.973Z</time>
      </trkpt>
      <trkpt lat="46.23802" lon="4.72473">
        <ele>268.06304931641</ele>
        <time>2019-12-13T20:33:31.372Z</time>
      </trkpt>
      <trkpt lat="46.23801" lon="4.72509">
        <ele>266.35949707031</ele>
        <time>2019-12-13T20:33:35.776Z</time>
      </trkpt>
      <trkpt lat="46.23801" lon="4.72517">
        <ele>265.95196533203</ele>
        <time>2019-12-13T20:33:40.181Z</time>
      </trkpt>
      <trkpt lat="46.2383" lon="4.72528">
        <ele>263.8</ele>
      </trkpt>
      <trkpt lat="46.23993" lon="4.72711">
        <ele>260.5</ele>
      </trkpt>
      <trkpt lat="46.24084" lon="4.72894">
        <ele>266</ele>
      </trkpt>
      <trkpt lat="46.24141" lon="4.72998">
        <ele>267</ele>
      </trkpt>
      <trkpt lat="46.24162" lon="4.73027">
        <ele>266</ele>
      </trkpt>
      <trkpt lat="46.24057" lon="4.73094">
        <ele>262</ele>
      </trkpt>
      <trkpt lat="46.23929" lon="4.73184">
        <ele>258</ele>
      </trkpt>
      <trkpt lat="46.23806" lon="4.73291">
        <ele>252</ele>
      </trkpt>
      <trkpt lat="46.23874" lon="4.7335">
        <ele>253</ele>
      </trkpt>
      <trkpt lat="46.23938" lon="4.73386">
        <ele>254</ele>
      </trkpt>
      <trkpt lat="46.23966" lon="4.73427">
        <ele>252</ele>
      </trkpt>
      <trkpt lat="46.23995" lon="4.73476">
        <ele>252</ele>
      </trkpt>
      <trkpt lat="46.24018" lon="4.73518">
        <ele>253</ele>
      </trkpt>
      <trkpt lat="46.24049" lon="4.73603">
        <ele>255</ele>
      </trkpt>
      <trkpt lat="46.24" lon="4.7362">
        <ele>254</ele>
      </trkpt>
      <trkpt lat="46.23825" lon="4.7362">
        <ele>254</ele>
      </trkpt>
      <trkpt lat="46.23776" lon="4.73644">
        <ele>254</ele>
      </trkpt>
      <trkpt lat="46.23687" lon="4.73719">
        <ele>251</ele>
      </trkpt>
      <trkpt lat="46.23633" lon="4.73768">
        <ele>246</ele>
      </trkpt>
      <trkpt lat="46.23562" lon="4.73793">
        <ele>241</ele>
      </trkpt>
      <trkpt lat="46.2351" lon="4.73779">
        <ele>240</ele>
      </trkpt>
      <trkpt lat="46.23437" lon="4.73721">
        <ele>236</ele>
      </trkpt>
      <trkpt lat="46.23385" lon="4.73691">
        <ele>233.9</ele>
      </trkpt>
      <trkpt lat="46.23311" lon="4.73689">
        <ele>231.9</ele>
      </trkpt>
      <trkpt lat="46.23286" lon="4.7372">
        <ele>231.1</ele>
      </trkpt>
      <trkpt lat="46.23253" lon="4.73835">
        <ele>231.4</ele>
      </trkpt>
      <trkpt lat="46.23226" lon="4.73928">
        <ele>233.13639831543</ele>
        <time>2019-12-13T20:36:21.169Z</time>
      </trkpt>
      <trkpt lat="46.23229" lon="4.73917">
        <ele>232.68333435059</ele>
        <time>2019-12-13T20:36:25.965Z</time>
      </trkpt>
      <trkpt lat="46.23229" lon="4.73917">
        <ele>232.68374633789</ele>
        <time>2019-12-13T20:36:30.761Z</time>
      </trkpt>
      <trkpt lat="46.23229" lon="4.73917">
        <ele>232.68333435059</ele>
        <time>2019-12-13T20:36:35.557Z</time>
      </trkpt>
      <trkpt lat="46.23226" lon="4.73928">
        <ele>233.13639831543</ele>
        <time>2019-12-13T20:36:40.355Z</time>
      </trkpt>
      <trkpt lat="46.2315" lon="4.74158">
        <ele>239.83619689941</ele>
        <time>2019-12-13T20:36:45.188Z</time>
      </trkpt>
      <trkpt lat="46.2315" lon="4.74158">
        <ele>239.83630371094</ele>
        <time>2019-12-13T20:36:50.021Z</time>
      </trkpt>
      <trkpt lat="46.23038" lon="4.7412">
        <ele>241.9</ele>
      </trkpt>
      <trkpt lat="46.22952" lon="4.74094">
        <ele>239.4</ele>
      </trkpt>
      <trkpt lat="46.22875" lon="4.74064">
        <ele>235.1</ele>
      </trkpt>
      <trkpt lat="46.22782" lon="4.7443">
        <ele>241.3</ele>
      </trkpt>
      <trkpt lat="46.22734" lon="4.74633">
        <ele>241.17150878906</ele>
        <time>2019-12-13T20:37:19.601Z</time>
      </trkpt>
      <trkpt lat="46.22731" lon="4.74642">
        <ele>241.07255554199</ele>
        <time>2019-12-13T20:37:24.567Z</time>
      </trkpt>
      <trkpt lat="46.22731" lon="4.74642">
        <ele>241.07286071777</ele>
        <time>2019-12-13T20:37:29.533Z</time>
      </trkpt>
      <trkpt lat="46.22625" lon="4.74973">
        <ele>239.74116516113</ele>
        <time>2019-12-13T20:37:34.549Z</time>
      </trkpt>
      <trkpt lat="46.22513" lon="4.75182">
        <ele>240.359375</ele>
        <time>2019-12-13T20:37:39.602Z</time>
      </trkpt>
      <trkpt lat="46.22471" lon="4.75141">
        <ele>238.13868713379</ele>
        <time>2019-12-13T20:37:44.665Z</time>
      </trkpt>
      <trkpt lat="46.22471" lon="4.75141">
        <ele>238.13858032227</ele>
        <time>2019-12-13T20:37:49.728Z</time>
      </trkpt>
      <trkpt lat="46.22412" lon="4.75346">
        <ele>237.3</ele>
      </trkpt>
      <trkpt lat="46.22348" lon="4.75618">
        <ele>233.6</ele>
      </trkpt>
      <trkpt lat="46.22283" lon="4.7585">
        <ele>232.3</ele>
      </trkpt>
      <trkpt lat="46.22224" lon="4.76078">
        <ele>227.1</ele>
      </trkpt>
      <trkpt lat="46.22203" lon="4.76054">
        <ele>226.2</ele>
      </trkpt>
      <trkpt lat="46.22141" lon="4.76274">
        <ele>221</ele>
      </trkpt>
      <trkpt lat="46.22045" lon="4.76623">
        <ele>214.8</ele>
      </trkpt>
      <trkpt lat="46.22001" lon="4.7673">
        <ele>213</ele>
      </trkpt>
      <trkpt lat="46.21975" lon="4.76859">
        <ele>211.1</ele>
      </trkpt>
      <trkpt lat="46.21956" lon="4.76838">
        <ele>211</ele>
      </trkpt>
      <trkpt lat="46.21913" lon="4.76939">
        <ele>208.3</ele>
      </trkpt>
      <trkpt lat="46.21877" lon="4.76867">
        <ele>209.6</ele>
      </trkpt>
      <trkpt lat="46.21847" lon="4.76798">
        <ele>210.5</ele>
      </trkpt>
      <trkpt lat="46.21831" lon="4.76765">
        <ele>209.5</ele>
      </trkpt>
      <trkpt lat="46.21793" lon="4.76713">
        <ele>209.2</ele>
      </trkpt>
      <trkpt lat="46.21755" lon="4.76661">
        <ele>208.6</ele>
      </trkpt>
      <trkpt lat="46.21721" lon="4.76614">
        <ele>208.5</ele>
      </trkpt>
      <trkpt lat="46.2171" lon="4.7662">
        <ele>208.3</ele>
      </trkpt>
      <trkpt lat="46.21682" lon="4.76667">
        <ele>207.9</ele>
      </trkpt>
      <trkpt lat="46.21613" lon="4.76464">
        <ele>202.2</ele>
      </trkpt>
      <trkpt lat="46.21561" lon="4.76318">
        <ele>198.6</ele>
      </trkpt>
      <trkpt lat="46.21544" lon="4.76284">
        <ele>198</ele>
      </trkpt>
      <trkpt lat="46.21486" lon="4.76227">
        <ele>194.3</ele>
      </trkpt>
      <trkpt lat="46.21436" lon="4.76168">
        <ele>192.8</ele>
      </trkpt>
      <trkpt lat="46.21389" lon="4.76089">
        <ele>191.9</ele>
      </trkpt>
      <trkpt lat="46.2137" lon="4.76011">
        <ele>191.3</ele>
      </trkpt>
      <trkpt lat="46.21367" lon="4.75974">
        <ele>190.5</ele>
      </trkpt>
      <trkpt lat="46.2136" lon="4.75951">
        <ele>190.2</ele>
      </trkpt>
      <trkpt lat="46.21369" lon="4.75913">
        <ele>189.8</ele>
      </trkpt>
      <trkpt lat="46.21371" lon="4.75893">
        <ele>189.9</ele>
      </trkpt>
      <trkpt lat="46.21368" lon="4.75877">
        <ele>189.8</ele>
      </trkpt>
      <trkpt lat="46.21376" lon="4.75805">
        <ele>190.2</ele>
      </trkpt>
      <trkpt lat="46.21392" lon="4.7573">
        <ele>190.7</ele>
      </trkpt>
      <trkpt lat="46.21381" lon="4.75706">
        <ele>190.66915893555</ele>
        <time>2019-12-13T20:40:52.458Z</time>
      </trkpt>
      <trkpt lat="46.21365" lon="4.75703">
        <ele>190.26382446289</ele>
        <time>2019-12-13T20:40:57.843Z</time>
      </trkpt>
      <trkpt lat="46.2133" lon="4.75677">
        <ele>189.43998718262</ele>
        <time>2019-12-13T20:41:03.236Z</time>
      </trkpt>
      <trkpt lat="46.2135" lon="4.75627">
        <ele>189.13278198242</ele>
        <time>2019-12-13T20:41:08.637Z</time>
      </trkpt>
      <trkpt lat="46.21355" lon="4.75604">
        <ele>189.61180114746</ele>
        <time>2019-12-13T20:41:14.041Z</time>
      </trkpt>
      <trkpt lat="46.2139" lon="4.75544">
        <ele>189.20016479492</ele>
        <time>2019-12-13T20:41:19.456Z</time>
      </trkpt>
    </trkseg>
  </trk>
</gpx>